sensor_id;sensor_type;location;lat;lon;timestamp;pressure;altitude;pressure_sealevel;temperature;humidity
20612;BME280;10465;42.686;23.364;2024-02-04T00:01:46;95389.00;;;8.31;64.21
20612;BME280;10465;42.686;23.364;2024-02-04T00:04:12;95381.03;;;8.36;66.35
20612;BME280;10465;42.686;23.364;2024-02-04T00:06:37;95299.66;;;7.96;66.96
20612;BME280;10465;42.686;23.364;2024-02-04T00:09:03;95376.44;;;8.52;66.54
20612;BME280;10465;42.686;23.364;2024-02-04T00:11:30;95373.66;;;8.68;66.93
20612;BME280;10465;42.686;23.364;2024-02-04T00:13:55;95317.19;;;8.34;66.37
20612;BME280;10465;42.686;23.364;2024-02-04T00:16:20;95377.19;;;8.82;66.54
20612;BME280;10465;42.686;23.364;2024-02-04T00:18:46;95308.16;;;8.46;66.51
20612;BME280;10465;42.686;23.364;2024-02-04T00:21:11;95371.28;;;8.90;66.40
20612;BME280;10465;42.686;23.364;2024-02-04T00:23:37;95372.06;;;8.90;66.32
20612;BME280;10465;42.686;23.364;2024-02-04T00:26:02;95366.75;;;8.96;66.49
20612;BME280;10465;42.686;23.364;2024-02-04T00:28:28;95350.28;;;8.80;66.32
20612;BME280;10465;42.686;23.364;2024-02-04T00:30:54;95377.75;;;9.03;66.71
20612;BME280;10465;42.686;23.364;2024-02-04T00:33:21;95376.19;;;9.02;66.29
20612;BME280;10465;42.686;23.364;2024-02-04T00:35:47;95374.31;;;9.02;66.08
20612;BME280;10465;42.686;23.364;2024-02-04T00:38:12;95364.13;;;8.96;66.74
20612;BME280;10465;42.686;23.364;2024-02-04T00:40:38;95372.63;;;9.11;66.33
20612;BME280;10465;42.686;23.364;2024-02-04T00:43:03;95356.84;;;9.06;65.40
20612;BME280;10465;42.686;23.364;2024-02-04T00:45:29;95350.56;;;9.02;65.68
20612;BME280;10465;42.686;23.364;2024-02-04T00:47:54;95357.34;;;9.08;65.98
20612;BME280;10465;42.686;23.364;2024-02-04T00:50:19;95369.16;;;9.16;66.43
20612;BME280;10465;42.686;23.364;2024-02-04T00:52:45;95356.97;;;9.20;65.83
20612;BME280;10465;42.686;23.364;2024-02-04T00:55:10;95343.06;;;9.09;66.46
20612;BME280;10465;42.686;23.364;2024-02-04T00:57:36;95362.09;;;9.30;66.00
20612;BME280;10465;42.686;23.364;2024-02-04T01:00:01;95335.16;;;9.09;66.12
20612;BME280;10465;42.686;23.364;2024-02-04T01:02:27;95345.09;;;9.18;66.23
20612;BME280;10465;42.686;23.364;2024-02-04T01:04:52;95371.81;;;9.35;66.33
20612;BME280;10465;42.686;23.364;2024-02-04T01:07:18;95334.59;;;9.12;66.27
20612;BME280;10465;42.686;23.364;2024-02-04T01:09:43;95368.13;;;9.36;66.04
20612;BME280;10465;42.686;23.364;2024-02-04T01:12:09;95371.25;;;9.38;66.09
20612;BME280;10465;42.686;23.364;2024-02-04T01:14:34;95370.94;;;9.39;66.37
20612;BME280;10465;42.686;23.364;2024-02-04T01:17:00;95374.41;;;9.40;66.70
20612;BME280;10465;42.686;23.364;2024-02-04T01:19:25;95380.75;;;9.39;66.58
20612;BME280;10465;42.686;23.364;2024-02-04T01:21:50;95348.44;;;9.23;66.54
20612;BME280;10465;42.686;23.364;2024-02-04T01:24:16;95381.19;;;9.46;66.55
20612;BME280;10465;42.686;23.364;2024-02-04T01:26:41;95361.75;;;9.37;66.94
20612;BME280;10465;42.686;23.364;2024-02-04T01:29:07;95367.66;;;9.48;66.72
20612;BME280;10465;42.686;23.364;2024-02-04T01:31:32;95374.56;;;9.49;66.91
20612;BME280;10465;42.686;23.364;2024-02-04T01:33:58;95367.41;;;9.49;67.06
20612;BME280;10465;42.686;23.364;2024-02-04T01:36:23;95368.97;;;9.50;67.07
20612;BME280;10465;42.686;23.364;2024-02-04T01:38:49;95352.41;;;9.45;66.88
20612;BME280;10465;42.686;23.364;2024-02-04T01:41:14;95364.69;;;9.54;67.12
20612;BME280;10465;42.686;23.364;2024-02-04T01:43:40;95365.41;;;9.41;68.08
20612;BME280;10465;42.686;23.364;2024-02-04T01:46:05;95359.56;;;9.44;67.76
20612;BME280;10465;42.686;23.364;2024-02-04T01:48:31;95352.91;;;9.47;67.79
20612;BME280;10465;42.686;23.364;2024-02-04T01:50:58;95342.31;;;9.47;67.79
20612;BME280;10465;42.686;23.364;2024-02-04T01:53:26;95348.34;;;9.52;67.79
20612;BME280;10465;42.686;23.364;2024-02-04T01:55:51;95329.47;;;9.40;67.68
20612;BME280;10465;42.686;23.364;2024-02-04T01:58:17;95346.41;;;9.58;67.79
20612;BME280;10465;42.686;23.364;2024-02-04T02:00:43;95337.97;;;9.56;67.37
20612;BME280;10465;42.686;23.364;2024-02-04T02:03:11;95343.53;;;9.54;67.72
20612;BME280;10465;42.686;23.364;2024-02-04T02:05:37;95352.34;;;9.50;68.99
20612;BME280;10465;42.686;23.364;2024-02-04T02:08:04;95315.31;;;9.31;68.73
20612;BME280;10465;42.686;23.364;2024-02-04T02:10:31;95295.34;;;9.25;68.39
20612;BME280;10465;42.686;23.364;2024-02-04T02:13:00;95328.13;;;9.61;68.57
20612;BME280;10465;42.686;23.364;2024-02-04T02:15:32;95331.84;;;9.60;68.58
20612;BME280;10465;42.686;23.364;2024-02-04T02:18:11;95327.91;;;9.58;68.90
20612;BME280;10465;42.686;23.364;2024-02-04T02:24:01;95319.75;;;9.54;69.14
20612;BME280;10465;42.686;23.364;2024-02-04T02:26:31;95330.25;;;9.59;69.16
20612;BME280;10465;42.686;23.364;2024-02-04T02:28:58;95320.31;;;9.51;69.23
20612;BME280;10465;42.686;23.364;2024-02-04T02:31:23;95329.47;;;9.59;68.89
20612;BME280;10465;42.686;23.364;2024-02-04T02:33:49;95326.75;;;9.64;68.97
20612;BME280;10465;42.686;23.364;2024-02-04T02:36:20;95297.53;;;9.55;68.40
20612;BME280;10465;42.686;23.364;2024-02-04T02:39:08;95309.88;;;9.60;68.38
20612;BME280;10465;42.686;23.364;2024-02-04T02:41:35;95332.25;;;9.68;68.87
20612;BME280;10465;42.686;23.364;2024-02-04T02:44:03;95299.97;;;9.52;68.65
20612;BME280;10465;42.686;23.364;2024-02-04T02:46:30;95306.81;;;9.72;68.99
20612;BME280;10465;42.686;23.364;2024-02-04T02:48:56;95305.88;;;9.62;68.85
20612;BME280;10465;42.686;23.364;2024-02-04T02:51:22;95306.66;;;9.63;68.67
20612;BME280;10465;42.686;23.364;2024-02-04T02:53:47;95311.69;;;9.64;68.52
20612;BME280;10465;42.686;23.364;2024-02-04T02:56:13;95238.44;;;9.13;68.29
20612;BME280;10465;42.686;23.364;2024-02-04T02:58:38;95320.03;;;9.72;68.04
20612;BME280;10465;42.686;23.364;2024-02-04T03:01:03;95312.88;;;9.72;68.53
20612;BME280;10465;42.686;23.364;2024-02-04T03:03:29;95321.78;;;9.76;68.07
20612;BME280;10465;42.686;23.364;2024-02-04T03:05:54;95312.31;;;9.75;68.45
20612;BME280;10465;42.686;23.364;2024-02-04T03:08:20;95290.81;;;9.63;68.06
20612;BME280;10465;42.686;23.364;2024-02-04T03:10:45;95324.38;;;9.81;68.13
20612;BME280;10465;42.686;23.364;2024-02-04T03:13:11;95321.16;;;9.84;67.53
20612;BME280;10465;42.686;23.364;2024-02-04T03:15:36;95320.34;;;9.84;67.78
20612;BME280;10465;42.686;23.364;2024-02-04T03:18:01;95294.09;;;9.74;67.78
20612;BME280;10465;42.686;23.364;2024-02-04T03:20:27;95280.44;;;9.66;67.49
20612;BME280;10465;42.686;23.364;2024-02-04T03:22:52;95315.00;;;9.89;67.42
20612;BME280;10465;42.686;23.364;2024-02-04T03:25:18;95313.63;;;9.91;67.33
20612;BME280;10465;42.686;23.364;2024-02-04T03:27:43;95302.28;;;9.91;67.46
20612;BME280;10465;42.686;23.364;2024-02-04T03:30:09;95312.59;;;9.93;67.80
20612;BME280;10465;42.686;23.364;2024-02-04T03:32:35;95303.44;;;9.85;67.61
20612;BME280;10465;42.686;23.364;2024-02-04T03:35:01;95293.78;;;9.75;67.72
20612;BME280;10465;42.686;23.364;2024-02-04T03:37:26;95302.06;;;9.87;68.03
20612;BME280;10465;42.686;23.364;2024-02-04T03:39:52;95297.50;;;9.93;67.83
20612;BME280;10465;42.686;23.364;2024-02-04T03:42:18;95299.53;;;9.96;67.78
20612;BME280;10465;42.686;23.364;2024-02-04T03:44:44;95270.72;;;9.81;67.87
20612;BME280;10465;42.686;23.364;2024-02-04T03:47:10;95286.25;;;10.01;67.42
20612;BME280;10465;42.686;23.364;2024-02-04T03:49:35;95265.88;;;10.02;67.57
20612;BME280;10465;42.686;23.364;2024-02-04T03:52:01;95273.31;;;10.00;67.16
20612;BME280;10465;42.686;23.364;2024-02-04T03:54:26;95278.78;;;10.03;67.36
20612;BME280;10465;42.686;23.364;2024-02-04T03:56:51;95270.28;;;10.06;66.75
20612;BME280;10465;42.686;23.364;2024-02-04T03:59:17;95274.28;;;10.04;66.72
20612;BME280;10465;42.686;23.364;2024-02-04T04:01:49;95284.28;;;10.07;66.66
20612;BME280;10465;42.686;23.364;2024-02-04T04:04:15;95264.56;;;9.85;67.37
20612;BME280;10465;42.686;23.364;2024-02-04T04:06:43;95298.41;;;10.02;67.77
20612;BME280;10465;42.686;23.364;2024-02-04T04:09:09;95297.09;;;10.00;67.67
20612;BME280;10465;42.686;23.364;2024-02-04T04:11:35;95299.19;;;10.03;67.81
20612;BME280;10465;42.686;23.364;2024-02-04T04:14:01;95285.25;;;9.97;67.57
20612;BME280;10465;42.686;23.364;2024-02-04T04:16:26;95276.41;;;9.88;67.88
20612;BME280;10465;42.686;23.364;2024-02-04T04:18:52;95290.03;;;9.95;68.38
20612;BME280;10465;42.686;23.364;2024-02-04T04:21:18;95269.06;;;9.85;69.05
20612;BME280;10465;42.686;23.364;2024-02-04T04:23:43;95183.66;;;9.38;69.41
20612;BME280;10465;42.686;23.364;2024-02-04T04:26:09;95258.50;;;9.85;68.68
20612;BME280;10465;42.686;23.364;2024-02-04T04:28:34;95272.91;;;9.93;69.25
20612;BME280;10465;42.686;23.364;2024-02-04T04:31:00;95271.97;;;9.83;69.32
20612;BME280;10465;42.686;23.364;2024-02-04T04:33:25;95300.84;;;9.99;69.28
20612;BME280;10465;42.686;23.364;2024-02-04T04:35:51;95283.84;;;9.86;69.02
20612;BME280;10465;42.686;23.364;2024-02-04T04:38:16;95286.19;;;9.87;68.87
20612;BME280;10465;42.686;23.364;2024-02-04T04:40:42;95281.22;;;10.00;68.74
20612;BME280;10465;42.686;23.364;2024-02-04T04:43:07;95283.19;;;9.94;69.02
20612;BME280;10465;42.686;23.364;2024-02-04T04:45:32;95282.63;;;9.97;69.39
20612;BME280;10465;42.686;23.364;2024-02-04T04:47:58;95275.94;;;10.00;68.87
20612;BME280;10465;42.686;23.364;2024-02-04T04:50:23;95279.47;;;9.95;68.75
20612;BME280;10465;42.686;23.364;2024-02-04T04:52:49;95289.59;;;10.07;69.35
20612;BME280;10465;42.686;23.364;2024-02-04T04:55:14;95290.56;;;10.11;68.89
20612;BME280;10465;42.686;23.364;2024-02-04T04:57:40;95284.19;;;10.12;68.91
20612;BME280;10465;42.686;23.364;2024-02-04T05:00:06;95283.22;;;10.08;69.42
20612;BME280;10465;42.686;23.364;2024-02-04T05:02:35;95295.56;;;10.12;69.62
20612;BME280;10465;42.686;23.364;2024-02-04T05:05:01;95266.16;;;10.00;69.48
20612;BME280;10465;42.686;23.364;2024-02-04T05:07:26;95292.44;;;10.10;69.68
20612;BME280;10465;42.686;23.364;2024-02-04T05:09:52;95259.69;;;9.93;69.95
20612;BME280;10465;42.686;23.364;2024-02-04T05:12:17;95268.78;;;10.00;69.39
20612;BME280;10465;42.686;23.364;2024-02-04T05:14:43;95262.59;;;9.91;69.54
20612;BME280;10465;42.686;23.364;2024-02-04T05:17:08;95261.25;;;9.94;69.62
20612;BME280;10465;42.686;23.364;2024-02-04T05:19:35;95249.19;;;9.87;69.18
20612;BME280;10465;42.686;23.364;2024-02-04T05:22:01;95273.50;;;10.03;68.86
20612;BME280;10465;42.686;23.364;2024-02-04T05:24:26;95282.94;;;10.09;68.71
20612;BME280;10465;42.686;23.364;2024-02-04T05:26:52;95293.63;;;10.18;68.48
20612;BME280;10465;42.686;23.364;2024-02-04T05:29:17;95219.44;;;9.63;68.63
20612;BME280;10465;42.686;23.364;2024-02-04T05:31:43;95302.50;;;10.08;69.01
20612;BME280;10465;42.686;23.364;2024-02-04T05:34:09;95309.41;;;10.09;69.21
20612;BME280;10465;42.686;23.364;2024-02-04T05:36:35;95311.38;;;10.18;68.96
20612;BME280;10465;42.686;23.364;2024-02-04T05:39:13;95291.75;;;10.05;68.79
20612;BME280;10465;42.686;23.364;2024-02-04T05:41:40;95306.94;;;10.13;68.49
20612;BME280;10465;42.686;23.364;2024-02-04T05:44:05;95284.88;;;10.04;68.55
20612;BME280;10465;42.686;23.364;2024-02-04T05:46:32;95306.28;;;10.21;68.28
20612;BME280;10465;42.686;23.364;2024-02-04T05:48:57;95300.94;;;10.26;68.37
20612;BME280;10465;42.686;23.364;2024-02-04T05:51:23;95317.28;;;10.28;67.24
20612;BME280;10465;42.686;23.364;2024-02-04T05:53:48;95303.78;;;10.30;67.49
20612;BME280;10465;42.686;23.364;2024-02-04T05:56:14;95284.91;;;10.18;66.97
20612;BME280;10465;42.686;23.364;2024-02-04T05:58:39;95302.91;;;10.34;66.44
20612;BME280;10465;42.686;23.364;2024-02-04T06:01:05;95268.72;;;10.05;65.97
20612;BME280;10465;42.686;23.364;2024-02-04T06:03:31;95315.41;;;10.29;66.25
20612;BME280;10465;42.686;23.364;2024-02-04T06:05:56;95319.94;;;10.28;65.82
20612;BME280;10465;42.686;23.364;2024-02-04T06:08:21;95322.56;;;10.28;65.91
20612;BME280;10465;42.686;23.364;2024-02-04T06:10:47;95303.31;;;10.09;66.03
20612;BME280;10465;42.686;23.364;2024-02-04T06:13:12;95316.16;;;10.15;65.57
20612;BME280;10465;42.686;23.364;2024-02-04T06:15:38;95320.88;;;10.19;66.05
20612;BME280;10465;42.686;23.364;2024-02-04T06:18:03;95322.53;;;10.14;65.54
20612;BME280;10465;42.686;23.364;2024-02-04T06:20:29;95324.88;;;10.16;65.84
20612;BME280;10465;42.686;23.364;2024-02-04T06:22:54;95329.47;;;10.10;65.74
20612;BME280;10465;42.686;23.364;2024-02-04T06:25:20;95314.94;;;9.94;66.07
20612;BME280;10465;42.686;23.364;2024-02-04T06:27:45;95308.78;;;9.80;66.36
20612;BME280;10465;42.686;23.364;2024-02-04T06:30:11;95354.03;;;9.97;66.38
20612;BME280;10465;42.686;23.364;2024-02-04T06:32:36;95359.88;;;9.94;66.74
20612;BME280;10465;42.686;23.364;2024-02-04T06:35:02;95366.66;;;10.00;66.65
20612;BME280;10465;42.686;23.364;2024-02-04T06:37:27;95360.78;;;10.03;66.11
20612;BME280;10465;42.686;23.364;2024-02-04T06:39:54;95371.59;;;10.07;66.24
20612;BME280;10465;42.686;23.364;2024-02-04T06:42:19;95366.50;;;10.10;65.90
20612;BME280;10465;42.686;23.364;2024-02-04T06:44:45;95375.44;;;10.14;66.33
20612;BME280;10465;42.686;23.364;2024-02-04T06:47:11;95342.66;;;9.97;66.53
20612;BME280;10465;42.686;23.364;2024-02-04T06:49:43;95352.72;;;10.13;66.74
20612;BME280;10465;42.686;23.364;2024-02-04T06:52:08;95352.28;;;10.25;66.29
20612;BME280;10465;42.686;23.364;2024-02-04T06:54:34;95362.00;;;10.30;66.26
20612;BME280;10465;42.686;23.364;2024-02-04T06:56:59;95327.50;;;10.16;66.20
20612;BME280;10465;42.686;23.364;2024-02-04T06:59:25;95365.03;;;10.37;65.86
20612;BME280;10465;42.686;23.364;2024-02-04T07:01:50;95352.88;;;10.36;65.55
20612;BME280;10465;42.686;23.364;2024-02-04T07:04:17;95337.88;;;10.31;65.83
20612;BME280;10465;42.686;23.364;2024-02-04T07:06:43;95354.66;;;10.40;66.09
20612;BME280;10465;42.686;23.364;2024-02-04T07:09:08;95338.44;;;10.28;66.16
20612;BME280;10465;42.686;23.364;2024-02-04T07:11:34;95354.75;;;10.35;66.41
20612;BME280;10465;42.686;23.364;2024-02-04T07:13:59;95330.56;;;10.23;66.14
20612;BME280;10465;42.686;23.364;2024-02-04T07:16:25;95347.59;;;10.36;65.74
20612;BME280;10465;42.686;23.364;2024-02-04T07:18:51;95343.84;;;10.37;65.68
20612;BME280;10465;42.686;23.364;2024-02-04T07:21:17;95351.34;;;10.49;66.53
20612;BME280;10465;42.686;23.364;2024-02-04T07:23:42;95356.63;;;10.49;65.64
20612;BME280;10465;42.686;23.364;2024-02-04T07:26:08;95344.66;;;10.37;66.08
20612;BME280;10465;42.686;23.364;2024-02-04T07:28:34;95347.38;;;10.32;66.59
20612;BME280;10465;42.686;23.364;2024-02-04T07:30:59;95359.38;;;10.44;66.63
20612;BME280;10465;42.686;23.364;2024-02-04T07:33:25;95338.38;;;10.33;66.36
20612;BME280;10465;42.686;23.364;2024-02-04T07:35:50;95339.16;;;10.34;66.50
20612;BME280;10465;42.686;23.364;2024-02-04T07:38:16;95353.97;;;10.49;66.34
20612;BME280;10465;42.686;23.364;2024-02-04T07:40:41;95358.00;;;10.46;66.60
20612;BME280;10465;42.686;23.364;2024-02-04T07:43:07;95352.00;;;10.40;66.30
20612;BME280;10465;42.686;23.364;2024-02-04T07:45:33;95341.41;;;10.40;66.53
20612;BME280;10465;42.686;23.364;2024-02-04T07:47:59;95347.91;;;10.48;65.70
20612;BME280;10465;42.686;23.364;2024-02-04T07:50:24;95345.25;;;10.34;65.76
20612;BME280;10465;42.686;23.364;2024-02-04T07:52:51;95373.50;;;10.53;65.82
20612;BME280;10465;42.686;23.364;2024-02-04T07:55:17;95371.34;;;10.55;65.93
20612;BME280;10465;42.686;23.364;2024-02-04T07:57:42;95345.66;;;10.42;66.37
20612;BME280;10465;42.686;23.364;2024-02-04T08:00:08;95344.59;;;10.56;66.15
20612;BME280;10465;42.686;23.364;2024-02-04T08:02:35;95372.28;;;10.78;65.65
20612;BME280;10465;42.686;23.364;2024-02-04T08:05:01;95316.53;;;10.55;64.80
20612;BME280;10465;42.686;23.364;2024-02-04T08:07:27;95369.53;;;10.97;64.15
20612;BME280;10465;42.686;23.364;2024-02-04T08:09:52;95373.56;;;11.08;63.53
20612;BME280;10465;42.686;23.364;2024-02-04T08:12:17;95372.97;;;11.11;63.04
20612;BME280;10465;42.686;23.364;2024-02-04T08:14:43;95348.41;;;11.05;62.59
20612;BME280;10465;42.686;23.364;2024-02-04T08:17:08;95342.25;;;10.96;61.93
20612;BME280;10465;42.686;23.364;2024-02-04T08:19:34;95357.25;;;11.01;62.36
20612;BME280;10465;42.686;23.364;2024-02-04T08:22:00;95375.50;;;11.16;61.34
20612;BME280;10465;42.686;23.364;2024-02-04T08:24:26;95363.63;;;11.13;61.55
20612;BME280;10465;42.686;23.364;2024-02-04T08:26:51;95364.03;;;11.21;61.75
20612;BME280;10465;42.686;23.364;2024-02-04T08:29:16;95341.78;;;10.94;61.91
20612;BME280;10465;42.686;23.364;2024-02-04T08:31:42;95359.31;;;11.18;61.67
20612;BME280;10465;42.686;23.364;2024-02-04T08:34:07;95377.06;;;11.31;61.24
20612;BME280;10465;42.686;23.364;2024-02-04T08:36:33;95356.84;;;11.21;61.27
20612;BME280;10465;42.686;23.364;2024-02-04T08:38:58;95372.75;;;11.35;61.12
20612;BME280;10465;42.686;23.364;2024-02-04T08:41:24;95378.53;;;11.37;61.23
20612;BME280;10465;42.686;23.364;2024-02-04T08:43:49;95366.16;;;11.32;61.11
20612;BME280;10465;42.686;23.364;2024-02-04T08:46:15;95330.16;;;11.18;61.50
20612;BME280;10465;42.686;23.364;2024-02-04T08:48:43;95361.19;;;11.31;61.67
20612;BME280;10465;42.686;23.364;2024-02-04T08:51:12;95377.97;;;11.76;60.77
20612;BME280;10465;42.686;23.364;2024-02-04T08:53:38;95367.94;;;11.87;60.34
20612;BME280;10465;42.686;23.364;2024-02-04T08:56:07;95368.72;;;12.10;59.34
20612;BME280;10465;42.686;23.364;2024-02-04T08:58:33;95369.69;;;12.14;58.68
20612;BME280;10465;42.686;23.364;2024-02-04T09:00:58;95365.59;;;12.08;58.46
20612;BME280;10465;42.686;23.364;2024-02-04T09:03:24;95347.50;;;12.10;58.72
20612;BME280;10465;42.686;23.364;2024-02-04T09:05:49;95352.53;;;12.11;58.70
20612;BME280;10465;42.686;23.364;2024-02-04T09:08:15;95361.50;;;12.02;59.62
20612;BME280;10465;42.686;23.364;2024-02-04T09:10:40;95333.34;;;11.78;59.92
20612;BME280;10465;42.686;23.364;2024-02-04T09:13:06;95336.44;;;11.72;60.22
20612;BME280;10465;42.686;23.364;2024-02-04T09:15:32;95349.06;;;11.75;60.69
20612;BME280;10465;42.686;23.364;2024-02-04T09:17:57;95343.16;;;11.55;61.13
20612;BME280;10465;42.686;23.364;2024-02-04T09:20:23;95364.63;;;11.68;61.31
20612;BME280;10465;42.686;23.364;2024-02-04T09:22:48;95368.00;;;11.59;61.65
20612;BME280;10465;42.686;23.364;2024-02-04T09:25:14;95353.38;;;11.48;61.74
20612;BME280;10465;42.686;23.364;2024-02-04T09:27:40;95384.97;;;11.58;61.88
20612;BME280;10465;42.686;23.364;2024-02-04T09:30:05;95370.78;;;11.41;62.05
20612;BME280;10465;42.686;23.364;2024-02-04T09:32:31;95366.28;;;11.27;62.35
20612;BME280;10465;42.686;23.364;2024-02-04T09:34:57;95386.88;;;11.44;62.36
20612;BME280;10465;42.686;23.364;2024-02-04T09:37:22;95371.66;;;11.36;63.16
20612;BME280;10465;42.686;23.364;2024-02-04T09:39:48;95353.97;;;11.45;63.39
20612;BME280;10465;42.686;23.364;2024-02-04T09:42:19;95316.16;;;11.53;62.10
20612;BME280;10465;42.686;23.364;2024-02-04T09:44:45;95393.34;;;12.02;61.66
20612;BME280;10465;42.686;23.364;2024-02-04T09:47:12;95362.03;;;12.35;60.38
20612;BME280;10465;42.686;23.364;2024-02-04T09:49:38;95359.25;;;12.71;59.12
20612;BME280;10465;42.686;23.364;2024-02-04T09:52:08;95380.13;;;12.95;58.27
20612;BME280;10465;42.686;23.364;2024-02-04T09:54:44;95387.47;;;12.90;57.45
20612;BME280;10465;42.686;23.364;2024-02-04T09:57:11;95351.50;;;12.92;58.02
20612;BME280;10465;42.686;23.364;2024-02-04T09:59:37;95362.56;;;13.17;57.42
20612;BME280;10465;42.686;23.364;2024-02-04T10:02:04;95348.53;;;13.25;56.81
20612;BME280;10465;42.686;23.364;2024-02-04T10:04:30;95346.69;;;13.60;55.67
20612;BME280;10465;42.686;23.364;2024-02-04T10:06:56;95364.09;;;13.83;55.22
20612;BME280;10465;42.686;23.364;2024-02-04T10:09:22;95349.84;;;13.97;54.64
20612;BME280;10465;42.686;23.364;2024-02-04T10:11:47;95376.13;;;14.24;54.41
20612;BME280;10465;42.686;23.364;2024-02-04T10:14:13;95367.47;;;14.45;53.59
20612;BME280;10465;42.686;23.364;2024-02-04T10:16:40;95367.78;;;14.61;52.89
20612;BME280;10465;42.686;23.364;2024-02-04T10:19:05;95357.16;;;14.52;53.15
20612;BME280;10465;42.686;23.364;2024-02-04T10:21:31;95350.44;;;14.20;53.38
20612;BME280;10465;42.686;23.364;2024-02-04T10:23:56;95380.06;;;14.18;54.32
20612;BME280;10465;42.686;23.364;2024-02-04T10:26:22;95365.97;;;13.92;55.02
20612;BME280;10465;42.686;23.364;2024-02-04T10:28:48;95351.09;;;13.65;55.89
20612;BME280;10465;42.686;23.364;2024-02-04T10:31:14;95354.22;;;13.75;56.40
20612;BME280;10465;42.686;23.364;2024-02-04T10:33:45;95366.75;;;13.75;56.42
20612;BME280;10465;42.686;23.364;2024-02-04T10:36:11;95353.44;;;13.57;56.47
20612;BME280;10465;42.686;23.364;2024-02-04T10:38:37;95348.41;;;13.56;56.77
20612;BME280;10465;42.686;23.364;2024-02-04T10:41:03;95360.91;;;13.29;57.37
20612;BME280;10465;42.686;23.364;2024-02-04T10:43:31;95367.06;;;13.16;58.36
20612;BME280;10465;42.686;23.364;2024-02-04T10:46:09;95356.25;;;13.04;59.18
20612;BME280;10465;42.686;23.364;2024-02-04T10:48:36;95356.53;;;12.94;59.57
20612;BME280;10465;42.686;23.364;2024-02-04T10:51:14;95357.56;;;12.84;60.31
20612;BME280;10465;42.686;23.364;2024-02-04T10:53:44;95363.16;;;12.74;60.93
20612;BME280;10465;42.686;23.364;2024-02-04T10:56:36;95367.34;;;12.66;61.07
20612;BME280;10465;42.686;23.364;2024-02-04T10:59:02;95345.47;;;12.60;61.44
20612;BME280;10465;42.686;23.364;2024-02-04T11:01:28;95342.19;;;12.63;61.14
20612;BME280;10465;42.686;23.364;2024-02-04T11:03:54;95339.97;;;12.57;61.33
20612;BME280;10465;42.686;23.364;2024-02-04T11:06:21;95345.56;;;12.55;61.08
20612;BME280;10465;42.686;23.364;2024-02-04T11:08:47;95335.81;;;12.42;61.17
20612;BME280;10465;42.686;23.364;2024-02-04T11:11:13;95352.47;;;12.56;61.33
20612;BME280;10465;42.686;23.364;2024-02-04T11:13:40;95353.38;;;12.92;60.55
20612;BME280;10465;42.686;23.364;2024-02-04T11:16:15;95337.63;;;12.95;59.51
20612;BME280;10465;42.686;23.364;2024-02-04T11:26:43;95296.25;;;13.20;58.23
20612;BME280;10465;42.686;23.364;2024-02-04T11:29:09;95327.63;;;13.84;56.64
20612;BME280;10465;42.686;23.364;2024-02-04T11:31:38;95339.19;;;14.05;55.45
20612;BME280;10465;42.686;23.364;2024-02-04T11:34:05;95312.81;;;14.30;54.45
20612;BME280;10465;42.686;23.364;2024-02-04T11:36:38;95316.16;;;14.09;54.38
20612;BME280;10465;42.686;23.364;2024-02-04T11:39:13;95321.31;;;14.23;54.84
20612;BME280;10465;42.686;23.364;2024-02-04T11:41:46;95268.44;;;13.96;54.87
20612;BME280;10465;42.686;23.364;2024-02-04T11:44:12;95282.47;;;14.14;54.40
20612;BME280;10465;42.686;23.364;2024-02-04T11:46:38;95307.91;;;14.58;53.91
20612;BME280;10465;42.686;23.364;2024-02-04T11:49:03;95306.91;;;14.80;52.83
20612;BME280;10465;42.686;23.364;2024-02-04T11:51:29;95295.38;;;14.97;52.10
20612;BME280;10465;42.686;23.364;2024-02-04T11:53:55;95285.66;;;15.22;51.01
20612;BME280;10465;42.686;23.364;2024-02-04T11:56:23;95272.34;;;15.43;50.19
20612;BME280;10465;42.686;23.364;2024-02-04T11:58:49;95249.72;;;15.70;48.61
20612;BME280;10465;42.686;23.364;2024-02-04T12:01:14;95260.94;;;15.96;47.72
20612;BME280;10465;42.686;23.364;2024-02-04T12:03:41;95240.09;;;16.23;46.76
20612;BME280;10465;42.686;23.364;2024-02-04T12:06:06;95250.16;;;16.50;46.10
20612;BME280;10465;42.686;23.364;2024-02-04T12:08:34;95278.19;;;16.56;45.68
20612;BME280;10465;42.686;23.364;2024-02-04T12:11:00;95287.56;;;16.63;45.78
20612;BME280;10465;42.686;23.364;2024-02-04T12:13:28;95288.75;;;16.74;45.11
20612;BME280;10465;42.686;23.364;2024-02-04T12:15:53;95292.69;;;16.68;44.65
20612;BME280;10465;42.686;23.364;2024-02-04T12:18:19;95229.47;;;16.02;44.90
20612;BME280;10465;42.686;23.364;2024-02-04T12:20:48;95233.53;;;15.87;45.63
20612;BME280;10465;42.686;23.364;2024-02-04T12:23:17;95277.28;;;15.95;46.65
20612;BME280;10465;42.686;23.364;2024-02-04T12:25:44;95272.09;;;15.77;47.03
20612;BME280;10465;42.686;23.364;2024-02-04T12:28:09;95275.53;;;15.57;47.83
20612;BME280;10465;42.686;23.364;2024-02-04T12:30:35;95276.66;;;15.56;48.15
20612;BME280;10465;42.686;23.364;2024-02-04T12:33:02;95257.06;;;15.52;47.98
20612;BME280;10465;42.686;23.364;2024-02-04T12:35:29;95274.38;;;15.67;47.77
20612;BME280;10465;42.686;23.364;2024-02-04T12:37:56;95249.38;;;15.50;47.18
20612;BME280;10465;42.686;23.364;2024-02-04T12:40:24;95262.97;;;15.78;47.08
20612;BME280;10465;42.686;23.364;2024-02-04T12:42:57;95257.38;;;15.92;46.26
20612;BME280;10465;42.686;23.364;2024-02-04T12:45:23;95256.44;;;16.09;46.23
20612;BME280;10465;42.686;23.364;2024-02-04T12:47:50;95260.34;;;16.24;45.69
20612;BME280;10465;42.686;23.364;2024-02-04T12:50:17;95257.25;;;16.34;45.43
20612;BME280;10465;42.686;23.364;2024-02-04T12:52:47;95066.69;;;15.02;45.22
20612;BME280;10465;42.686;23.364;2024-02-04T12:55:23;95267.41;;;16.41;44.94
20612;BME280;10465;42.686;23.364;2024-02-04T12:57:50;95265.03;;;16.27;45.45
20612;BME280;10465;42.686;23.364;2024-02-04T13:00:18;95248.84;;;16.11;45.85